Time;durP1;ratioP1;P1;durP2;ratioP2;P2;SDS_P1;SDS_P2;PMS_P1;PMS_P2;Temp;Humidity;BMP_temperature;BMP_pressure;BME280_temperature;BME280_humidity;BME280_pressure;Samples;Min_cycle;Max_cycle;Signal;HPM_P1;HPM_P2
2022/08/30 00:02:20;;;;;;;8.87;4.97;;;17.00;99.90;;;;;;5097107;28;20742;-53
2022/08/30 00:04:50;;;;;;;7.30;4.60;;;17.00;99.90;;;;;;5096530;28;20484;-52
2022/08/30 00:07:23;;;;;;;8.17;4.17;;;17.00;99.90;;;;;;5096345;28;20500;-52
2022/08/30 00:09:51;;;;;;;7.87;5.00;;;17.00;99.90;;;;;;5096372;28;20461;-52
2022/08/30 00:12:25;;;;;;;6.60;4.43;;;17.10;99.90;;;;;;5096358;28;20461;-52
2022/08/30 00:14:53;;;;;;;7.30;4.10;;;17.10;99.90;;;;;;5096148;28;20909;-51
2022/08/30 00:17:21;;;;;;;5.47;4.50;;;17.10;99.90;;;;;;5096669;28;20913;-49
2022/08/30 00:19:54;;;;;;;6.63;4.20;;;17.20;99.90;;;;;;5096331;28;20494;-51
2022/08/30 00:22:24;;;;;;;9.00;4.67;;;17.20;99.90;;;;;;5096181;28;20510;-50
2022/08/30 00:24:54;;;;;;;5.83;4.47;;;17.20;99.90;;;;;;5096072;28;20461;-53
2022/08/30 00:27:21;;;;;;;5.17;4.27;;;17.10;99.90;;;;;;5099144;28;20881;-50
2022/08/30 00:29:48;;;;;;;7.43;4.40;;;17.00;99.90;;;;;;5100275;28;20459;-48
2022/08/30 00:32:17;;;;;;;7.03;5.53;;;16.80;99.90;;;;;;5100456;28;20543;-50
2022/08/30 00:34:44;;;;;;;6.03;4.40;;;16.80;99.90;;;;;;5100296;28;20925;-48
2022/08/30 00:37:13;;;;;;;5.10;4.23;;;16.80;99.90;;;;;;5099113;28;20484;-50
2022/08/30 00:39:40;;;;;;;6.40;5.40;;;16.80;99.90;;;;;;5099986;28;20937;-48
2022/08/30 00:42:08;;;;;;;6.90;5.10;;;16.80;99.90;;;;;;5099583;28;20502;-50
2022/08/30 00:44:36;;;;;;;7.40;4.50;;;16.80;99.90;;;;;;5100258;28;20502;-50
2022/08/30 00:47:06;;;;;;;7.43;4.80;;;16.80;99.90;;;;;;5098794;28;20488;-49
2022/08/30 00:49:34;;;;;;;5.70;5.03;;;16.90;99.90;;;;;;5100049;28;20479;-47
2022/08/30 00:52:05;;;;;;;8.07;6.43;;;16.90;99.90;;;;;;5099368;28;20521;-50
2022/08/30 00:54:35;;;;;;;8.00;5.30;;;17.00;99.90;;;;;;5099830;28;20812;-49
2022/08/30 00:57:04;;;;;;;5.83;4.70;;;17.00;99.90;;;;;;5099300;28;20461;-50
2022/08/30 00:59:31;;;;;;;6.37;5.20;;;17.00;99.90;;;;;;5099282;28;20463;-49
2022/08/30 01:02:00;;;;;;;5.90;5.30;;;17.00;99.90;;;;;;5100067;28;20468;-49
2022/08/30 01:04:28;;;;;;;5.90;5.20;;;17.10;99.90;;;;;;5099695;28;20485;-50
2022/08/30 01:06:56;;;;;;;5.77;4.47;;;17.00;99.90;;;;;;5098539;28;20488;-53
2022/08/30 01:09:26;;;;;;;6.87;4.77;;;17.00;99.90;;;;;;5099256;28;20464;-55
2022/08/30 01:12:00;;;;;;;9.97;5.27;;;17.00;99.90;;;;;;5099210;28;20490;-50
2022/08/30 01:14:28;;;;;;;6.20;5.20;;;16.90;99.90;;;;;;5099798;28;20464;-49
2022/08/30 01:16:57;;;;;;;6.87;4.70;;;16.90;99.90;;;;;;5098419;28;20461;-47
2022/08/30 01:19:34;;;;;;;7.23;5.10;;;16.90;99.90;;;;;;5098301;28;20576;-54
2022/08/30 01:22:08;;;;;;;6.27;4.53;;;16.90;99.90;;;;;;5098768;28;20797;-56
2022/08/30 01:24:40;;;;;;;6.60;4.60;;;16.90;1.00;;;;;;5099569;28;20798;-52
2022/08/30 01:27:07;;;;;;;11.87;5.73;;;17.00;1.00;;;;;;5099268;28;20486;-52
2022/08/30 01:29:38;;;;;;;7.00;5.63;;;16.90;1.00;;;;;;5098009;28;20539;-52
2022/08/30 01:32:06;;;;;;;6.97;4.80;;;17.00;1.00;;;;;;5099297;28;20466;-49
2022/08/30 01:34:39;;;;;;;5.60;5.10;;;17.00;1.00;;;;;;5099106;28;20521;-51
2022/08/30 01:37:06;;;;;;;9.40;5.20;;;17.00;1.00;;;;;;5098483;28;20478;-51
2022/08/30 01:39:34;;;;;;;6.63;4.70;;;17.00;1.00;;;;;;5097770;28;20537;-49
2022/08/30 01:42:03;;;;;;;5.13;4.63;;;17.00;1.00;;;;;;5098411;28;20495;-54
2022/08/30 01:44:30;;;;;;;6.50;5.13;;;17.10;1.00;;;;;;5098284;28;20951;-49
2022/08/30 01:46:58;;;;;;;6.10;4.63;;;17.10;1.00;;;;;;5098782;28;20511;-53
2022/08/30 01:49:26;;;;;;;12.63;7.67;;;17.10;99.90;;;;;;5098374;28;20543;-54
2022/08/30 01:51:53;;;;;;;6.10;5.37;;;17.10;1.00;;;;;;5098059;28;20495;-48
2022/08/30 01:54:21;;;;;;;7.20;5.30;;;17.00;1.00;;;;;;5098708;28;20530;-52
2022/08/30 01:56:48;;;;;;;5.77;5.10;;;16.90;1.00;;;;;;5098730;28;20464;-52
2022/08/30 01:59:17;;;;;;;8.10;5.83;;;17.00;1.00;;;;;;5097760;28;21000;-50
2022/08/30 02:01:44;;;;;;;6.23;5.20;;;16.90;1.00;;;;;;5097878;28;20456;-50
2022/08/30 02:04:15;;;;;;;7.93;5.90;;;16.90;1.00;;;;;;5098307;28;20446;-47
2022/08/30 02:06:44;;;;;;;6.10;5.33;;;17.00;1.00;;;;;;5098862;28;20944;-52
2022/08/30 02:09:17;;;;;;;7.90;5.20;;;17.00;1.00;;;;;;5097819;28;20457;-55
2022/08/30 02:11:44;;;;;;;8.03;5.00;;;17.00;1.00;;;;;;5078165;28;20465;-54
2022/08/30 02:14:11;;;;;;;5.43;4.33;;;17.00;1.00;;;;;;5083102;28;20456;-52
2022/08/30 02:16:40;;;;;;;7.13;5.50;;;16.90;1.00;;;;;;5098274;28;20474;-47
2022/08/30 02:19:08;;;;;;;10.20;6.17;;;16.90;1.00;;;;;;5097959;28;20579;-54
2022/08/30 02:21:36;;;;;;;9.20;5.60;;;16.90;1.00;;;;;;5096948;28;20921;-53
2022/08/30 02:24:03;;;;;;;6.30;5.70;;;16.90;1.00;;;;;;5097713;28;20517;-53
2022/08/30 02:26:35;;;;;;;10.27;6.30;;;16.80;1.00;;;;;;5097953;28;20916;-56
2022/08/30 02:29:04;;;;;;;7.77;6.80;;;16.80;1.00;;;;;;5097422;28;20513;-49
2022/08/30 02:31:33;;;;;;;6.20;5.47;;;16.80;1.00;;;;;;5097182;28;20462;-53
2022/08/30 02:34:03;;;;;;;7.23;5.33;;;16.70;1.00;;;;;;5097924;28;20443;-48
2022/08/30 02:36:30;;;;;;;10.73;6.17;;;16.70;1.00;;;;;;5097575;28;20447;-53
2022/08/30 02:38:57;;;;;;;7.80;5.07;;;16.70;1.00;;;;;;5097004;28;20473;-53
2022/08/30 02:41:25;;;;;;;8.40;5.53;;;16.70;1.00;;;;;;5096722;28;20804;-54
2022/08/30 02:43:59;;;;;;;12.20;5.93;;;16.70;1.00;;;;;;5097182;28;20462;-50
2022/08/30 02:46:26;;;;;;;5.40;4.33;;;16.70;1.00;;;;;;5097893;28;20464;-50
2022/08/30 02:48:54;;;;;;;5.87;5.30;;;16.70;1.00;;;;;;5097509;28;20459;-53
2022/08/30 02:51:22;;;;;;;7.03;6.00;;;16.80;1.00;;;;;;5096931;28;20538;-50
2022/08/30 02:53:50;;;;;;;6.93;5.30;;;16.80;1.00;;;;;;5097066;28;20541;-48
2022/08/30 02:56:17;;;;;;;7.10;6.00;;;16.70;1.00;;;;;;5097905;28;20496;-52
2022/08/30 02:58:47;;;;;;;6.73;5.30;;;16.70;1.00;;;;;;5097473;28;20530;-47
2022/08/30 03:01:17;;;;;;;10.90;5.60;;;16.70;1.00;;;;;;5096857;28;20452;-50
2022/08/30 03:03:45;;;;;;;6.90;5.80;;;16.80;1.00;;;;;;5096453;28;20485;-53
2022/08/30 03:06:13;;;;;;;11.63;6.40;;;16.70;1.00;;;;;;5096994;28;20733;-50
2022/08/30 03:08:42;;;;;;;7.20;6.30;;;16.70;1.00;;;;;;5096784;28;20543;-50
2022/08/30 03:11:09;;;;;;;10.30;6.30;;;16.70;1.00;;;;;;5077019;28;20504;-48
2022/08/30 03:13:37;;;;;;;6.50;5.80;;;16.70;1.00;;;;;;5094869;28;20465;-52
2022/08/30 03:16:04;;;;;;;9.00;6.20;;;16.70;1.00;;;;;;5096978;28;20901;-51
2022/08/30 03:18:32;;;;;;;5.53;5.00;;;16.70;1.00;;;;;;5096639;28;20510;-53
2022/08/30 03:20:59;;;;;;;7.23;5.90;;;16.60;1.00;;;;;;5096303;28;20456;-52
2022/08/30 03:23:27;;;;;;;10.27;5.63;;;16.60;1.00;;;;;;5097286;28;20559;-53
2022/08/30 03:25:56;;;;;;;7.40;6.10;;;16.70;1.00;;;;;;5097376;28;20460;-52
2022/08/30 03:28:26;;;;;;;6.80;5.87;;;16.60;1.00;;;;;;5096974;28;20453;-48
2022/08/30 03:30:55;;;;;;;7.13;6.30;;;16.60;1.00;;;;;;5095919;28;20859;-52
2022/08/30 03:33:22;;;;;;;9.37;6.00;;;16.60;1.00;;;;;;5095975;28;20431;-53
2022/08/30 03:35:50;;;;;;;6.80;6.13;;;16.50;1.00;;;;;;5096547;28;20523;-50
2022/08/30 03:38:17;;;;;;;6.33;5.73;;;16.50;1.00;;;;;;5096764;28;20430;-51
2022/08/30 03:40:51;;;;;;;6.63;6.03;;;16.40;1.00;;;;;;5096174;28;20839;-52
2022/08/30 03:43:20;;;;;;;10.30;6.20;;;16.40;1.00;;;;;;5096742;28;20509;-50
2022/08/30 03:45:47;;;;;;;13.37;6.80;;;16.40;1.00;;;;;;5096885;28;20887;-47
2022/08/30 03:48:14;;;;;;;7.60;5.87;;;16.40;1.00;;;;;;5097435;28;20477;-53
2022/08/30 03:50:42;;;;;;;8.20;6.33;;;16.40;1.00;;;;;;5096309;28;20551;-48
2022/08/30 03:53:09;;;;;;;9.53;6.20;;;16.40;1.00;;;;;;5096912;28;20435;-49
2022/08/30 03:55:36;;;;;;;6.87;6.17;;;16.40;1.00;;;;;;5096540;28;20551;-53
2022/08/30 03:58:04;;;;;;;8.73;6.50;;;16.30;1.00;;;;;;5096866;28;20841;-50
2022/08/30 04:00:33;;;;;;;7.63;6.93;;;16.30;1.00;;;;;;5096366;28;20571;-49
2022/08/30 04:03:04;;;;;;;8.10;6.87;;;16.20;1.00;;;;;;5100901;28;20490;-50
2022/08/30 04:05:31;;;;;;;8.10;6.67;;;16.20;1.00;;;;;;5100546;28;20442;-50
2022/08/30 04:07:59;;;;;;;9.13;5.73;;;16.20;1.00;;;;;;5100667;28;20495;-48
2022/08/30 04:10:41;;;;;;;8.10;6.87;;;16.10;1.00;;;;;;5100158;28;20431;-49
2022/08/30 04:13:20;;;;;;;7.10;6.40;;;16.10;1.00;;;;;;5086108;28;20464;-49
2022/08/30 04:15:52;;;;;;;8.53;7.23;;;16.00;1.00;;;;;;5100347;28;20567;-48
2022/08/30 04:18:21;;;;;;;7.80;7.00;;;16.00;1.00;;;;;;5099634;28;20460;-52
2022/08/30 04:20:51;;;;;;;9.83;6.90;;;16.00;1.00;;;;;;5099993;28;20553;-53
2022/08/30 04:23:19;;;;;;;8.43;6.93;;;16.00;1.00;;;;;;5099186;28;20546;-52
2022/08/30 04:25:47;;;;;;;8.97;7.10;;;15.90;1.00;;;;;;5100127;28;20439;-53
2022/08/30 04:28:14;;;;;;;8.20;7.03;;;15.90;1.00;;;;;;5099963;28;20468;-54
2022/08/30 04:30:43;;;;;;;8.13;7.27;;;15.90;1.00;;;;;;5099764;28;20546;-49
2022/08/30 04:33:16;;;;;;;11.73;6.67;;;15.90;1.00;;;;;;5100410;28;20512;-50
2022/08/30 04:35:49;;;;;;;9.20;7.73;;;15.80;1.00;;;;;;5099762;28;20459;-50
2022/08/30 04:38:17;;;;;;;8.87;6.47;;;15.80;1.00;;;;;;5099526;28;20470;-50
2022/08/30 04:40:47;;;;;;;10.90;7.80;;;15.70;1.00;;;;;;5099778;28;20587;-49
2022/08/30 04:43:15;;;;;;;8.70;7.20;;;15.70;1.00;;;;;;5100363;28;20460;-53
2022/08/30 04:45:42;;;;;;;8.70;7.60;;;15.60;1.00;;;;;;5099311;28;20460;-49
2022/08/30 04:48:12;;;;;;;13.70;7.83;;;15.60;1.00;;;;;;5099151;28;20859;-47
2022/08/30 04:50:45;;;;;;;9.10;8.20;;;15.60;1.00;;;;;;5099080;28;20616;-48
2022/08/30 04:53:13;;;;;;;11.87;7.90;;;15.50;7.70;;;;;;5099666;28;20464;-49
2022/08/30 04:55:42;;;;;;;11.10;9.40;;;15.60;13.00;;;;;;5098653;28;20465;-47
2022/08/30 04:58:13;;;;;;;11.43;8.80;;;15.50;14.00;;;;;;5097402;28;20435;-50
2022/08/30 05:00:43;;;;;;;9.00;8.10;;;15.40;79.20;;;;;;5097334;28;20567;-49
2022/08/30 05:03:11;;;;;;;10.27;8.40;;;15.40;97.20;;;;;;5098394;28;20464;-47
2022/08/30 05:05:40;;;;;;;14.23;8.10;;;15.30;99.90;;;;;;5098353;28;20471;-52
2022/08/30 05:08:12;;;;;;;9.27;8.37;;;15.30;99.90;;;;;;5098621;28;20756;-51
2022/08/30 05:10:40;;;;;;;9.63;8.07;;;15.30;99.90;;;;;;5098844;28;20431;-52
2022/08/30 05:13:07;;;;;;;9.80;8.80;;;15.30;99.90;;;;;;5099164;28;20461;-54
2022/08/30 05:15:36;;;;;;;11.73;9.53;;;15.30;99.90;;;;;;5099447;28;20500;-52
2022/08/30 05:18:03;;;;;;;9.60;8.10;;;15.40;99.90;;;;;;5098334;28;20493;-56
2022/08/30 05:20:31;;;;;;;13.10;8.80;;;15.40;99.90;;;;;;5098407;28;20965;-50
2022/08/30 05:22:59;;;;;;;9.77;8.00;;;15.40;99.90;;;;;;5097466;28;20565;-49
2022/08/30 05:25:40;;;;;;;9.63;8.63;;;15.40;99.90;;;;;;5098654;28;20451;-53
2022/08/30 05:28:08;;;;;;;12.43;8.67;;;15.50;99.90;;;;;;5095150;28;20501;-54
2022/08/30 05:30:37;;;;;;;10.93;8.33;;;15.50;99.90;;;;;;5097727;28;20451;-51
2022/08/30 05:33:04;;;;;;;9.63;8.73;;;15.50;99.90;;;;;;5097344;28;20449;-55
2022/08/30 05:35:32;;;;;;;12.93;8.30;;;15.60;99.90;;;;;;5099064;28;20462;-54
2022/08/30 05:38:01;;;;;;;9.27;8.17;;;15.70;99.90;;;;;;5097092;28;20526;-54
2022/08/30 05:40:28;;;;;;;10.80;8.13;;;15.70;57.30;;;;;;5082781;28;20480;-54
2022/08/30 05:42:55;;;;;;;11.50;8.60;;;15.80;32.70;;;;;;5097316;28;20925;-53
2022/08/30 05:45:25;;;;;;;9.00;8.07;;;15.90;17.80;;;;;;5097779;28;20503;-54
2022/08/30 05:47:55;;;;;;;8.50;7.50;;;16.00;1.00;;;;;;5097310;28;20448;-54
2022/08/30 05:50:25;;;;;;;10.57;9.27;;;16.20;1.00;;;;;;5094804;28;20886;-53
2022/08/30 05:52:52;;;;;;;9.50;7.93;;;16.30;1.00;;;;;;5096385;28;20470;-55
2022/08/30 05:55:21;;;;;;;8.43;7.63;;;16.40;1.00;;;;;;5096764;28;20567;-52
2022/08/30 05:57:48;;;;;;;10.10;7.87;;;16.40;1.00;;;;;;5097589;28;20503;-54
2022/08/30 06:00:19;;;;;;;12.17;7.43;;;16.40;1.00;;;;;;5096810;28;20554;-50
2022/08/30 06:02:46;;;;;;;10.27;7.73;;;16.50;1.00;;;;;;5097033;28;20462;-50
2022/08/30 06:05:13;;;;;;;14.03;8.50;;;16.50;1.00;;;;;;5098037;28;20504;-56
2022/08/30 06:07:42;;;;;;;10.07;8.13;;;16.50;1.00;;;;;;5098213;28;20436;-49
2022/08/30 06:10:12;;;;;;;11.13;7.40;;;16.60;1.00;;;;;;5097018;28;20918;-57
2022/08/30 06:12:41;;;;;;;9.27;7.73;;;16.70;1.00;;;;;;5096462;28;20464;-52
2022/08/30 06:15:12;;;;;;;11.50;8.27;;;16.80;1.00;;;;;;5096189;28;20461;-55
2022/08/30 06:17:40;;;;;;;11.70;7.53;;;16.90;1.00;;;;;;5092438;28;20534;-56
2022/08/30 06:20:08;;;;;;;8.33;7.57;;;17.00;1.00;;;;;;5095948;28;20484;-55
2022/08/30 06:22:39;;;;;;;9.53;7.70;;;17.20;1.00;;;;;;5096707;28;20499;-55
2022/08/30 06:25:10;;;;;;;8.17;7.37;;;17.40;1.00;;;;;;5094396;28;20489;-53
2022/08/30 06:27:37;;;;;;;9.63;8.03;;;17.60;1.00;;;;;;5076969;28;20464;-51
2022/08/30 06:30:09;;;;;;;11.73;7.47;;;17.90;1.00;;;;;;5075445;28;20833;-53
2022/08/30 06:32:37;;;;;;;9.13;7.30;;;18.20;1.00;;;;;;5080401;28;20496;-51
2022/08/30 06:35:05;;;;;;;8.87;7.97;;;18.40;1.00;;;;;;5094549;28;20633;-55
2022/08/30 06:37:35;;;;;;;7.57;6.87;;;18.60;1.00;;;;;;5095442;28;20924;-55
2022/08/30 06:40:04;;;;;;;6.53;5.93;;;18.80;1.00;;;;;;5096971;28;20492;-52
2022/08/30 06:42:37;;;;;;;7.97;6.70;;;19.10;1.00;;;;;;5092016;28;20465;-57
2022/08/30 06:45:08;;;;;;;10.07;7.77;;;19.20;99.90;;;;;;5077969;28;20464;-58
2022/08/30 06:47:36;;;;;;;7.90;7.10;;;19.40;99.90;;;;;;5097641;28;20460;-55
2022/08/30 06:50:04;;;;;;;10.17;7.53;;;19.60;1.00;;;;;;5097554;28;20480;-57
2022/08/30 06:52:31;;;;;;;9.40;7.77;;;19.70;99.90;;;;;;5096382;28;20496;-57
2022/08/30 06:55:02;;;;;;;10.03;6.80;;;19.90;99.90;;;;;;5096893;28;20547;-56
2022/08/30 06:57:29;;;;;;;12.57;7.77;;;20.10;99.90;;;;;;5095091;28;20496;-53
2022/08/30 07:00:01;;;;;;;11.07;6.63;;;20.20;99.90;;;;;;5095923;28;20763;-53
2022/08/30 07:02:29;;;;;;;7.83;6.73;;;20.30;99.90;;;;;;5095502;28;20472;-56
2022/08/30 07:04:57;;;;;;;7.50;6.80;;;20.40;99.90;;;;;;5096406;28;20834;-56
2022/08/30 07:07:30;;;;;;;6.90;6.30;;;20.50;99.90;;;;;;5096988;28;20456;-56
2022/08/30 07:10:05;;;;;;;6.43;5.83;;;20.70;99.90;;;;;;5096569;28;20457;-54
2022/08/30 07:12:32;;;;;;;8.43;6.23;;;20.60;99.90;;;;;;5096742;28;20460;-51
2022/08/30 07:14:59;;;;;;;7.37;6.60;;;20.70;99.90;;;;;;5095712;28;20563;-57
2022/08/30 07:20:13;;;;;;;7.03;6.40;;;21.30;99.90;;;;;;5095629;28;20495;-54
2022/08/30 07:22:41;;;;;;;7.70;6.83;;;21.40;99.90;;;;;;5095841;28;20603;-58
2022/08/30 07:25:12;;;;;;;8.70;6.80;;;21.60;99.90;;;;;;5081478;28;20521;-55
2022/08/30 07:27:41;;;;;;;7.13;5.30;;;21.60;99.90;;;;;;5095937;28;20457;-56
2022/08/30 07:30:15;;;;;;;9.70;6.53;;;21.40;99.90;;;;;;5096315;28;20457;-58
2022/08/30 07:32:43;;;;;;;7.70;6.77;;;21.70;99.90;;;;;;5096019;28;20544;-51
2022/08/30 07:35:17;;;;;;;8.40;5.77;;;21.80;99.90;;;;;;5096609;28;20817;-54
2022/08/30 07:37:47;;;;;;;6.83;6.13;;;22.00;99.90;;;;;;5100320;28;20516;-57
2022/08/30 07:40:23;;;;;;;6.90;5.70;;;22.00;99.90;;;;;;5100279;28;20524;-57
2022/08/30 07:42:52;;;;;;;6.63;5.87;;;21.80;99.90;;;;;;5100534;28;20492;-58
2022/08/30 07:45:29;;;;;;;7.10;5.47;;;22.00;99.90;;;;;;5099400;28;20460;-53
2022/08/30 07:47:57;;;;;;;7.67;6.20;;;22.20;99.90;;;;;;5099356;28;20530;-56
2022/08/30 07:50:26;;;;;;;6.17;5.27;;;22.60;99.90;;;;;;5100814;28;20457;-57
2022/08/30 07:52:56;;;;;;;8.00;5.03;;;22.80;99.90;;;;;;5100976;28;20471;-57
2022/08/30 07:55:23;;;;;;;5.40;4.90;;;22.70;99.90;;;;;;5100310;28;20435;-53
2022/08/30 07:57:53;;;;;;;5.27;4.77;;;22.80;99.90;;;;;;5098928;28;20470;-55
2022/08/30 08:00:21;;;;;;;6.63;5.20;;;22.50;99.90;;;;;;5099658;28;20784;-59
2022/08/30 08:02:50;;;;;;;7.93;5.53;;;22.90;99.90;;;;;;5100759;28;20909;-55
2022/08/30 08:05:21;;;;;;;7.67;5.80;;;23.00;99.90;;;;;;5100078;28;20571;-58
2022/08/30 08:07:53;;;;;;;6.00;5.37;;;23.30;99.90;;;;;;5101188;28;20844;-56
2022/08/30 08:10:23;;;;;;;8.53;5.57;;;23.30;99.90;;;;;;5100157;28;20431;-54
2022/08/30 08:12:53;;;;;;;7.27;5.20;;;23.30;99.90;;;;;;5100692;28;20460;-57
2022/08/30 08:15:20;;;;;;;6.47;5.70;;;23.50;99.90;;;;;;5100091;28;20460;-52
2022/08/30 08:17:50;;;;;;;10.00;5.27;;;23.50;99.90;;;;;;5100344;28;20471;-56
2022/08/30 08:20:25;;;;;;;7.63;6.00;;;23.40;99.90;;;;;;5100139;28;20905;-52
2022/08/30 08:22:54;;;;;;;7.00;6.10;;;23.20;99.90;;;;;;5100524;28;20920;-54
2022/08/30 08:25:24;;;;;;;6.30;5.70;;;23.00;99.90;;;;;;5099901;28;20460;-56
2022/08/30 08:27:52;;;;;;;6.43;5.83;;;23.10;99.90;;;;;;5084582;28;20818;-57
2022/08/30 08:30:23;;;;;;;10.70;6.23;;;23.10;99.90;;;;;;5099967;28;20491;-49
2022/08/30 08:32:51;;;;;;;6.03;5.43;;;23.30;99.90;;;;;;5100219;28;20467;-53
2022/08/30 08:35:22;;;;;;;6.93;5.80;;;23.00;99.90;;;;;;5099783;28;20482;-55
2022/08/30 08:37:49;;;;;;;7.17;6.03;;;23.30;99.90;;;;;;5098351;28;20470;-59
2022/08/30 08:40:20;;;;;;;5.90;5.37;;;23.30;99.90;;;;;;5078093;28;20464;-58
2022/08/30 08:43:01;;;;;;;5.70;5.10;;;23.80;99.90;;;;;;5084734;28;20951;-55
2022/08/30 08:45:41;;;;;;;8.43;5.50;;;24.30;99.90;;;;;;5099760;28;20506;-52
2022/08/30 08:48:12;;;;;;;5.63;5.03;;;24.50;99.90;;;;;;5098775;28;20897;-53
2022/08/30 08:53:33;;;;;;;7.33;6.23;;;24.20;99.90;;;;;;5098937;28;20555;-56
2022/08/30 08:53:39;;;;;;;7.03;6.03;;;24.10;99.90;;;;;;5100049;28;20459;-58
2022/08/30 08:56:21;;;;;;;5.57;4.93;;;24.40;99.90;;;;;;5099754;28;20563;-59
2022/08/30 08:58:51;;;;;;;7.37;4.67;;;25.10;99.90;;;;;;5099450;28;20464;-57
2022/08/30 09:01:23;;;;;;;6.33;5.47;;;24.90;99.90;;;;;;5099719;28;20528;-54
2022/08/30 09:03:59;;;;;;;5.77;5.30;;;24.80;99.90;;;;;;5099732;28;20471;-55
2022/08/30 09:06:49;;;;;;;4.57;4.07;;;24.80;99.90;;;;;;5099563;28;20460;-51
2022/08/30 09:09:21;;;;;;;7.10;5.77;;;24.40;99.90;;;;;;5099479;28;20860;-53
2022/08/30 09:11:49;;;;;;;5.90;4.70;;;24.20;99.90;;;;;;5083983;28;20456;-56
2022/08/30 09:14:20;;;;;;;5.93;4.70;;;24.10;99.90;;;;;;5099159;28;20460;-52
2022/08/30 09:16:54;;;;;;;6.43;4.90;;;24.10;99.90;;;;;;5095854;28;20530;-53
2022/08/30 09:19:59;;;;;;;5.53;5.00;;;24.10;99.90;;;;;;5098941;28;20431;-58
2022/08/30 09:22:36;;;;;;;6.90;5.10;;;24.10;99.90;;;;;;5078152;28;20503;-56
2022/08/30 09:25:08;;;;;;;7.30;4.80;;;24.00;99.90;;;;;;5087845;28;20517;-56
2022/08/30 09:27:42;;;;;;;5.30;4.80;;;24.40;99.90;;;;;;5099149;28;20550;-55
2022/08/30 09:30:15;;;;;;;5.67;4.80;;;24.70;99.90;;;;;;5098937;28;20466;-56
2022/08/30 09:32:51;;;;;;;5.03;4.53;;;24.80;99.90;;;;;;5078723;28;20463;-51
2022/08/30 09:35:28;;;;;;;5.67;5.03;;;25.00;99.90;;;;;;5086778;28;20463;-56
2022/08/30 09:37:58;;;;;;;6.87;5.20;;;24.90;99.90;;;;;;5099410;28;20509;-52
2022/08/30 09:40:39;;;;;;;8.10;5.50;;;24.90;99.90;;;;;;5092673;28;20930;-53
2022/08/30 09:43:20;;;;;;;4.80;4.40;;;24.70;99.90;;;;;;5083052;28;20884;-57
2022/08/30 09:46:04;;;;;;;4.60;4.20;;;24.60;99.90;;;;;;5078709;28;20515;-58
2022/08/30 09:48:39;;;;;;;6.10;5.20;;;24.60;99.90;;;;;;5078711;28;20483;-55
2022/08/30 09:51:28;;;;;;;7.50;4.80;;;24.90;99.90;;;;;;5079518;28;20551;-56
2022/08/30 09:54:06;;;;;;;5.87;5.33;;;25.80;99.90;;;;;;5098307;28;20461;-58
2022/08/30 09:56:40;;;;;;;6.23;5.63;;;26.40;99.90;;;;;;5098405;28;20435;-55
2022/08/30 09:59:30;;;;;;;6.47;4.90;;;25.80;99.90;;;;;;5098541;28;20570;-57
2022/08/30 10:02:06;;;;;;;5.53;4.70;;;25.90;99.90;;;;;;5097550;28;20583;-53
2022/08/30 10:04:47;;;;;;;6.23;4.80;;;26.40;99.90;;;;;;5098076;28;20462;-56
2022/08/30 10:07:20;;;;;;;7.20;5.10;;;26.70;99.90;;;;;;5077941;28;20472;-57
2022/08/30 10:09:54;;;;;;;5.17;4.63;;;26.10;99.90;;;;;;5078424;28;20594;-55
2022/08/30 10:12:31;;;;;;;5.17;3.90;;;26.00;99.90;;;;;;5080948;28;20519;-59
2022/08/30 10:15:10;;;;;;;8.70;4.70;;;26.20;99.90;;;;;;5094716;28;20988;-50
2022/08/30 10:17:50;;;;;;;5.03;4.50;;;26.60;99.90;;;;;;5098397;28;20517;-55
2022/08/30 10:20:25;;;;;;;4.17;3.83;;;26.50;99.90;;;;;;5098402;28;20890;-55
2022/08/30 10:23:01;;;;;;;8.00;4.07;;;26.30;99.90;;;;;;5097500;28;20812;-55
2022/08/30 10:25:35;;;;;;;6.00;4.23;;;26.50;99.90;;;;;;5098115;28;20454;-56
2022/08/30 10:28:09;;;;;;;5.77;4.10;;;26.60;99.90;;;;;;5098020;28;20467;-54
2022/08/30 10:33:36;;;;;;;4.47;4.10;;;26.30;99.90;;;;;;5097165;28;20491;-56
2022/08/30 10:36:06;;;;;;;4.20;3.80;;;26.20;99.90;;;;;;5096594;28;20459;-54
2022/08/30 10:38:42;;;;;;;5.30;3.90;;;25.90;99.90;;;;;;5094483;28;20457;-56
2022/08/30 10:41:26;;;;;;;10.50;5.20;;;26.20;99.90;;;;;;5096762;28;20919;-52
2022/08/30 10:44:02;;;;;;;4.67;3.97;;;26.50;99.90;;;;;;5097536;28;20893;-55
2022/08/30 10:46:37;;;;;;;10.30;4.10;;;26.30;99.90;;;;;;5096462;28;20533;-53
2022/08/30 10:49:14;;;;;;;4.13;3.77;;;25.90;99.90;;;;;;5091673;28;20954;-55
2022/08/30 10:51:51;;;;;;;5.50;4.23;;;26.30;99.90;;;;;;5092133;28;20431;-58
2022/08/30 10:54:30;;;;;;;5.80;4.13;;;26.30;99.90;;;;;;5097252;28;20482;-54
2022/08/30 10:57:00;;;;;;;5.23;4.73;;;26.20;99.90;;;;;;5096649;28;20464;-51
2022/08/30 10:59:33;;;;;;;4.13;3.73;;;26.50;99.90;;;;;;5097921;28;20485;-55
2022/08/30 11:02:30;;;;;;;6.43;4.23;;;27.20;99.90;;;;;;5096671;28;20523;-56
2022/08/30 11:05:23;;;;;;;4.43;3.33;;;26.90;99.90;;;;;;5097410;28;20456;-55
2022/08/30 11:08:03;;;;;;;4.00;3.60;;;27.60;99.90;;;;;;5098614;28;20473;-56
2022/08/30 11:10:48;;;;;;;5.53;4.03;;;28.00;99.90;;;;;;5096473;28;20921;-53
2022/08/30 11:13:20;;;;;;;4.67;4.03;;;28.20;99.90;;;;;;5097628;28;20528;-55
2022/08/30 11:15:57;;;;;;;3.93;3.63;;;27.90;99.90;;;;;;5097385;28;20464;-50
2022/08/30 11:18:29;;;;;;;4.60;3.93;;;28.00;99.90;;;;;;5096431;28;20972;-53
2022/08/30 11:21:18;;;;;;;4.77;4.03;;;27.90;99.90;;;;;;5096894;28;20460;-51
2022/08/30 11:24:02;;;;;;;4.07;3.60;;;27.20;99.90;;;;;;5094479;28;20499;-52
2022/08/30 11:27:00;;;;;;;6.00;4.47;;;27.20;99.90;;;;;;5095868;28;20474;-53
2022/08/30 11:29:43;;;;;;;3.33;3.03;;;27.60;99.90;;;;;;5095791;28;20492;-52
2022/08/30 11:33:00;;;;;;;6.67;3.90;;;27.90;99.90;;;;;;5076919;28;20552;-58
2022/08/30 11:35:48;;;;;;;6.50;3.60;;;27.70;99.90;;;;;;5055555;28;20543;-56
2022/08/30 11:38:58;;;;;;;4.40;4.00;;;27.70;99.90;;;;;;5096243;28;20487;-56
2022/08/30 11:41:40;;;;;;;4.73;3.27;;;28.20;99.90;;;;;;5097095;28;20843;-51
2022/08/30 11:44:30;;;;;;;4.87;3.50;;;28.60;99.90;;;;;;5096975;28;20567;-57
2022/08/30 11:47:02;;;;;;;4.87;3.20;;;29.00;99.90;;;;;;5095247;28;20562;-53
2022/08/30 11:50:09;;;;;;;4.30;3.90;;;29.20;99.90;;;;;;5093204;28;20525;-56
2022/08/30 11:52:49;;;;;;;4.60;3.13;;;29.30;99.90;;;;;;5092199;28;20527;-54
2022/08/30 11:55:35;;;;;;;4.20;3.40;;;29.00;99.90;;;;;;5091026;28;20468;-54
2022/08/30 11:58:15;;;;;;;3.83;3.53;;;29.30;99.90;;;;;;5089379;28;20579;-54
2022/08/30 12:00:47;;;;;;;3.97;3.57;;;29.30;99.90;;;;;;5085790;28;20554;-51
2022/08/30 12:03:31;;;;;;;5.30;3.77;;;29.60;99.90;;;;;;5094128;28;20492;-54
2022/08/30 12:06:01;;;;;;;4.27;3.87;;;29.60;99.90;;;;;;5092358;28;20465;-53
2022/08/30 12:08:56;;;;;;;3.80;3.20;;;29.30;99.90;;;;;;5092816;28;20518;-53
2022/08/30 12:12:03;;;;;;;3.70;3.40;;;29.30;99.90;;;;;;5092788;28;20557;-55
2022/08/30 12:14:50;;;;;;;4.20;3.80;;;29.00;99.90;;;;;;5094099;28;20667;-52
2022/08/30 12:20:28;;;;;;;4.40;3.97;;;28.90;99.90;;;;;;5093656;28;20456;-51
2022/08/30 12:22:57;;;;;;;5.43;3.57;;;29.10;99.90;;;;;;5076209;28;20550;-51
2022/08/30 12:25:34;;;;;;;3.50;3.27;;;29.00;99.90;;;;;;5077265;28;20810;-55
2022/08/30 12:28:26;;;;;;;6.30;3.60;;;29.00;99.90;;;;;;5091590;28;20442;-52
2022/08/30 12:31:08;;;;;;;5.93;4.00;;;29.30;99.90;;;;;;5097885;27;20483;-55
2022/08/30 12:33:44;;;;;;;5.00;3.70;;;29.80;99.90;;;;;;5097231;28;20462;-51
2022/08/30 12:36:33;;;;;;;4.10;3.70;;;30.30;99.90;;;;;;5078448;28;20850;-54
2022/08/30 12:39:10;;;;;;;3.90;3.53;;;30.40;99.90;;;;;;5095204;28;20893;-50
2022/08/30 12:41:40;;;;;;;4.70;3.43;;;30.50;99.90;;;;;;5096977;28;20494;-54
2022/08/30 12:44:14;;;;;;;3.97;3.57;;;30.10;99.90;;;;;;5099917;28;20460;-52
2022/08/30 12:46:47;;;;;;;4.63;3.90;;;30.30;99.90;;;;;;5100417;28;20484;-53
2022/08/30 12:49:20;;;;;;;3.90;3.50;;;30.20;99.90;;;;;;5097495;28;20443;-54
2022/08/30 12:51:58;;;;;;;4.37;3.90;;;29.90;99.90;;;;;;5098846;28;21112;-54
2022/08/30 12:54:29;;;;;;;4.93;3.70;;;30.10;99.90;;;;;;5096575;28;20438;-55
2022/08/30 12:57:01;;;;;;;4.60;4.13;;;29.70;99.90;;;;;;5099946;28;20894;-54
2022/08/30 12:59:51;;;;;;;5.70;3.80;;;28.90;99.90;;;;;;5097924;28;20837;-53
2022/08/30 13:02:24;;;;;;;4.40;4.10;;;28.40;99.90;;;;;;5098545;28;20527;-53
2022/08/30 13:04:54;;;;;;;5.63;3.77;;;28.70;99.90;;;;;;5098913;28;20456;-54
2022/08/30 13:07:36;;;;;;;7.90;3.40;;;29.50;99.90;;;;;;5099190;28;20487;-56
2022/08/30 13:10:17;;;;;;;4.17;3.73;;;29.50;99.90;;;;;;5098017;28;20435;-57
2022/08/30 13:13:01;;;;;;;4.10;3.70;;;28.50;99.90;;;;;;5098507;28;20427;-52
2022/08/30 13:15:32;;;;;;;5.43;4.20;;;29.20;99.90;;;;;;5099525;28;20478;-52
2022/08/30 13:18:19;;;;;;;4.70;3.80;;;29.40;99.90;;;;;;5099354;28;20452;-54
2022/08/30 13:20:47;;;;;;;4.13;3.73;;;29.30;99.90;;;;;;5097151;28;20804;-54
2022/08/30 13:23:27;;;;;;;5.83;4.10;;;29.40;99.90;;;;;;5097268;28;20579;-56
2022/08/30 13:25:54;;;;;;;5.03;3.90;;;29.80;99.90;;;;;;5097025;28;20540;-54